Y04 weather

Sugar Loaf Resort Airport
Traverse City, Michigan, United States

Public forecast

Using degrees Fahrenheit for public forecast. Weather courtesy of forecast.io.

Closest aviation weather report (METAR) to Sugar Loaf Resort Airport

Closest report is Cherry Capital Airport, 14.2 nm (26.4 km) SE. Retrieved 2020/05/28 10:53 UTC (29 minutes ago):

KTVC 281053Z 00000KT 6SM -RA BR BKN049 OVC090 19/18 A2986 RMK AO2 RAB51 SLP109 P0001 T01940178

Closest aviation forecast (TAF) to Sugar Loaf Resort Airport

Closest forecast is Cherry Capital Airport, 14.2 nm (26.4 km) SE. Retrieved 2020/05/28 06:30 UTC (5 hours ago):

TAF KTVC 280528Z 2806/2906 00000KT P6SM SCT080 BKN120 FM281500 00000KT 6SM -SHRA OVC040 FM282000 27005KT 5SM SHRA BR OVC014 FM282300 VRB04KT 4SM SHRA OVC009 FM290500 00000KT 6SM -SHRA OVC019